createdAt,value
2023-11-18T00:00:54.034Z,98927.81
2023-11-18T00:03:20.463Z,98927.66
2023-11-18T00:05:46.957Z,98919.72
2023-11-18T00:08:13.292Z,98937.22
2023-11-18T00:10:39.704Z,98938.88
2023-11-18T00:13:06.065Z,98939.72
2023-11-18T00:15:32.466Z,98937.72
2023-11-18T00:17:58.824Z,98940.69
2023-11-18T00:20:25.262Z,98942.72
2023-11-18T00:22:51.773Z,98940.56
2023-11-18T00:25:18.182Z,98935.59
2023-11-18T00:27:44.663Z,98939.91
2023-11-18T00:30:11.481Z,98936.44
2023-11-18T00:32:38.542Z,98943.03
2023-11-18T00:35:05.461Z,98946.69
2023-11-18T00:37:31.974Z,98947.53
2023-11-18T00:39:58.487Z,98947.69
2023-11-18T00:42:24.854Z,98945.88
2023-11-18T00:44:51.219Z,98940.25
2023-11-18T00:47:17.674Z,98936.28
2023-11-18T00:49:44.180Z,98935.94
2023-11-18T00:52:10.563Z,98933.78
2023-11-18T00:54:36.899Z,98935.25
2023-11-18T00:57:03.442Z,98932.44
2023-11-18T00:59:29.861Z,98930.47
2023-11-18T01:01:56.378Z,98929.31
2023-11-18T01:04:22.750Z,98928.16
2023-11-18T01:06:49.165Z,98937.09
2023-11-18T01:09:15.520Z,98945.19
2023-11-18T01:12:06.830Z,98952.63
2023-11-18T01:14:28.199Z,98948.34
2023-11-18T01:16:54.568Z,98949.84
2023-11-18T01:19:21.016Z,98945.53
2023-11-18T01:21:47.425Z,98946.53
2023-11-18T01:24:13.775Z,98953.81
2023-11-18T01:26:40.136Z,98951.63
2023-11-18T01:29:06.497Z,98951.31
2023-11-18T01:31:40.112Z,98952.63
2023-11-18T01:34:14.156Z,98958.41
2023-11-18T01:36:40.467Z,98956.94
2023-11-18T01:39:06.817Z,98964.50
2023-11-18T01:41:33.266Z,98962.53
2023-11-18T01:43:59.625Z,98970.28
2023-11-18T01:46:26.365Z,98967.63
2023-11-18T01:48:53.379Z,98967.44
2023-11-18T01:51:20.332Z,98960.47
2023-11-18T01:53:48.788Z,98964.44
2023-11-18T01:56:15.268Z,98961.75
2023-11-18T01:58:41.704Z,98956.44
2023-11-18T02:01:08.254Z,98961.22
2023-11-18T02:03:37.819Z,98956.41
2023-11-18T02:06:05.458Z,98967.16
2023-11-18T02:08:33.789Z,98967.31
2023-11-18T02:11:06.574Z,98975.34
2023-11-18T02:13:37.087Z,98964.13
2023-11-18T02:16:05.272Z,98966.09
2023-11-18T02:18:31.883Z,98967.91
2023-11-18T02:21:00.217Z,98971.53
2023-11-18T02:23:27.465Z,98969.22
2023-11-18T02:25:54.353Z,98975.81
2023-11-18T02:28:20.854Z,98978.09
2023-11-18T02:30:47.584Z,98975.25
2023-11-18T02:33:26.011Z,98977.38
2023-11-18T02:36:04.089Z,98965.97
2023-11-18T02:38:37.490Z,98967.13
2023-11-18T02:41:10.353Z,98972.41
2023-11-18T02:43:39.288Z,98973.56
2023-11-18T02:46:06.801Z,98977.19
2023-11-18T02:48:33.689Z,98966.63
2023-11-18T02:51:00.469Z,98969.41
2023-11-18T02:53:26.814Z,98973.34
2023-11-18T02:55:53.377Z,98980.44
2023-11-18T02:58:20.633Z,98985.06
2023-11-18T03:00:47.222Z,98988.84
2023-11-18T03:03:13.725Z,98984.53
2023-11-18T03:05:40.196Z,98978.56
2023-11-18T03:08:06.815Z,98982.66
2023-11-18T03:10:33.825Z,98989.53
2023-11-18T03:13:00.188Z,98988.50
2023-11-18T03:15:26.585Z,98993.88
2023-11-18T03:17:53.185Z,98988.38
2023-11-18T03:20:21.132Z,98990.97
2023-11-18T03:22:47.844Z,98993.88
2023-11-18T03:25:14.724Z,98995.31
2023-11-18T03:27:41.421Z,98988.69
2023-11-18T03:30:08.900Z,98997.28
2023-11-18T03:32:39.899Z,98996.97
2023-11-18T03:35:07.784Z,98999.97
2023-11-18T03:37:34.170Z,98991.94
2023-11-18T03:40:00.515Z,99002.19
2023-11-18T03:42:26.897Z,99001.06
2023-11-18T03:44:53.257Z,98998.56
2023-11-18T03:47:19.688Z,99012.75
2023-11-18T03:49:46.121Z,99007.47
2023-11-18T03:52:12.467Z,99010.09
2023-11-18T03:54:38.827Z,99012.75
2023-11-18T03:57:05.442Z,99020.50
2023-11-18T03:59:31.790Z,99016.34
2023-11-18T04:01:58.302Z,99013.88
2023-11-18T04:04:24.706Z,99013.88
2023-11-18T04:06:51.122Z,99014.84
2023-11-18T04:09:17.557Z,99008.88
2023-11-18T04:11:43.924Z,99014.31
2023-11-18T04:14:10.301Z,99006.09
2023-11-18T04:16:37.089Z,99012.22
2023-11-18T04:19:03.903Z,99013.56
2023-11-18T04:21:30.539Z,99012.28
2023-11-18T04:23:56.872Z,99004.06
2023-11-18T04:26:23.329Z,99009.34
2023-11-18T04:28:49.682Z,99008.50
2023-11-18T04:31:16.052Z,99014.44
2023-11-18T04:33:42.608Z,99008.72
2023-11-18T04:36:10.991Z,99009.91
2023-11-18T04:38:37.410Z,99004.50
2023-11-18T04:41:04.101Z,99010.75
2023-11-18T04:43:38.750Z,99016.03
2023-11-18T04:46:09.372Z,99016.16
2023-11-18T04:48:38.838Z,99010.88
2023-11-18T04:51:07.287Z,99009.91
2023-11-18T04:53:33.606Z,99005.69
2023-11-18T04:56:00.102Z,99001.75
2023-11-18T04:58:26.553Z,98994.34
2023-11-18T05:00:53.013Z,98995.19
2023-11-18T05:03:19.678Z,98989.91
2023-11-18T05:05:46.111Z,98987.41
2023-11-18T05:08:20.723Z,98990.84
2023-11-18T05:10:48.800Z,98983.97
2023-11-18T05:13:15.696Z,98984.09
2023-11-18T05:15:42.196Z,98993.75
2023-11-18T05:18:08.938Z,98994.34
2023-11-18T05:20:35.363Z,98994.28
2023-11-18T05:23:01.717Z,99002.94
2023-11-18T05:25:28.216Z,99010.59
2023-11-18T05:27:54.653Z,98998.72
2023-11-18T05:30:21.019Z,99008.56
2023-11-18T05:32:47.482Z,99008.88
2023-11-18T05:35:13.847Z,99010.00
2023-11-18T05:37:40.386Z,99017.09
2023-11-18T05:40:07.322Z,99011.81
2023-11-18T05:42:40.273Z,99018.75
2023-11-18T05:45:07.606Z,99022.66
2023-11-18T05:47:37.633Z,99016.84
2023-11-18T05:50:04.434Z,99017.69
2023-11-18T05:52:30.789Z,99015.06
2023-11-18T05:54:57.129Z,99013.25
2023-11-18T05:57:23.584Z,99021.44
2023-11-18T05:59:49.917Z,99021.44
2023-11-18T06:02:16.495Z,99030.31
2023-11-18T06:04:42.887Z,99024.78
2023-11-18T06:07:09.229Z,99024.31
2023-11-18T06:09:35.662Z,99025.53
2023-11-18T06:12:02.018Z,99024.91
2023-11-18T06:14:28.336Z,99029.59
2023-11-18T06:16:54.857Z,99026.53
2023-11-18T06:19:22.294Z,99026.06
2023-11-18T06:21:48.670Z,99026.44
2023-11-18T06:24:15.152Z,99026.97
2023-11-18T06:26:41.496Z,99016.09
2023-11-18T06:29:07.930Z,99022.66
2023-11-18T06:31:34.323Z,99019.88
2023-11-18T06:34:00.698Z,99022.22
2023-11-18T06:36:27.040Z,99022.75
2023-11-18T06:38:54.215Z,99021.91
2023-11-18T06:41:22.254Z,99017.19
2023-11-18T06:43:48.650Z,99024.53
2023-11-18T06:46:15.025Z,99026.50
2023-11-18T06:48:41.437Z,99020.97
2023-11-18T06:51:08.759Z,99019.81
2023-11-18T06:53:35.563Z,99018.00
2023-11-18T06:56:02.077Z,99013.16
2023-11-18T06:58:28.418Z,99020.72
2023-11-18T07:00:56.147Z,99015.28
2023-11-18T07:03:22.623Z,99017.50
2023-11-18T07:05:49.395Z,99020.81
2023-11-18T07:08:15.842Z,99021.63
2023-11-18T07:10:42.225Z,99029.69
2023-11-18T07:13:08.719Z,99040.78
2023-11-18T07:15:35.768Z,99037.38
2023-11-18T07:18:02.439Z,99045.50
2023-11-18T07:20:28.922Z,99052.13
2023-11-18T07:22:55.278Z,99045.06
2023-11-18T07:25:21.658Z,99055.31
2023-11-18T07:27:48.048Z,99057.13
2023-11-18T07:30:14.543Z,99061.25
2023-11-18T07:32:40.944Z,99053.72
2023-11-18T07:35:07.728Z,99056.56
2023-11-18T07:37:34.086Z,99049.16
2023-11-18T07:40:00.514Z,99049.09
2023-11-18T07:42:27.102Z,99061.50
2023-11-18T07:44:53.490Z,99064.91
2023-11-18T07:47:19.897Z,99065.44
2023-11-18T07:49:47.386Z,99067.16
2023-11-18T07:52:13.713Z,99072.03
2023-11-18T07:54:40.058Z,99064.81
2023-11-18T07:57:06.458Z,99071.47
2023-11-18T07:59:32.908Z,99077.00
2023-11-18T08:01:59.457Z,99068.94
2023-11-18T08:04:25.871Z,99062.06
2023-11-18T08:06:52.311Z,99067.38
2023-11-18T08:09:18.650Z,99076.53
2023-11-18T08:11:46.299Z,99076.56
2023-11-18T08:14:12.713Z,99083.16
2023-11-18T08:16:39.262Z,99085.53
2023-11-18T08:19:05.733Z,99084.22
2023-11-18T08:21:32.128Z,99082.53
2023-11-18T08:23:58.504Z,99079.41
2023-11-18T08:26:24.874Z,99064.66
2023-11-18T08:28:51.252Z,99062.84
2023-11-18T08:31:17.674Z,99059.03
2023-11-18T08:33:44.420Z,99060.16
2023-11-18T08:36:11.181Z,99065.31
2023-11-18T08:38:37.638Z,99064.81
2023-11-18T08:41:04.345Z,99063.34
2023-11-18T08:43:30.682Z,99069.31
2023-11-18T08:45:58.437Z,99060.19
2023-11-18T08:48:25.949Z,99062.66
2023-11-18T08:50:52.319Z,99067.81
2023-11-18T08:53:18.686Z,99068.81
2023-11-18T08:55:45.443Z,99073.59
2023-11-18T08:58:12.828Z,99081.69
2023-11-18T09:00:39.292Z,99083.88
2023-11-18T09:03:05.871Z,99071.09
2023-11-18T09:05:33.898Z,99082.72
2023-11-18T09:08:00.403Z,99086.00
2023-11-18T09:10:27.811Z,99083.00
2023-11-18T09:12:55.937Z,99080.50
2023-11-18T09:15:22.951Z,99076.16
2023-11-18T09:17:50.252Z,99072.63
2023-11-18T09:20:16.866Z,99067.19
2023-11-18T09:22:43.278Z,99066.69
2023-11-18T09:25:10.743Z,99071.91
2023-11-18T09:27:37.371Z,99072.88
2023-11-18T09:30:04.072Z,99062.56
2023-11-18T09:32:30.542Z,99054.09
2023-11-18T09:34:56.946Z,99045.13
2023-11-18T09:37:23.327Z,99056.69
2023-11-18T09:39:49.826Z,99058.66
2023-11-18T09:42:16.601Z,99056.38
2023-11-18T09:44:43.054Z,99052.34
2023-11-18T09:47:09.607Z,99061.31
2023-11-18T09:49:44.614Z,99059.03
2023-11-18T09:52:17.525Z,99058.03
2023-11-18T09:54:55.545Z,99052.84
2023-11-18T09:57:37.844Z,99052.41
2023-11-18T10:00:05.638Z,99051.38
2023-11-18T10:02:32.572Z,99051.78
2023-11-18T10:05:01.137Z,99059.53
2023-11-18T10:07:28.236Z,99045.63
2023-11-18T10:09:58.431Z,99044.91
2023-11-18T10:12:25.517Z,99038.44
2023-11-18T10:14:52.184Z,99030.28
2023-11-18T10:17:19.161Z,99037.53
2023-11-18T10:19:59.412Z,99035.88
2023-11-18T10:22:27.875Z,99026.44
2023-11-18T10:24:58.171Z,99040.00
2023-11-18T10:27:25.830Z,99036.63
2023-11-18T10:29:56.724Z,99048.06
2023-11-18T10:32:23.338Z,99043.41
2023-11-18T10:34:50.909Z,99040.38
2023-11-18T10:37:17.334Z,99035.16
2023-11-18T10:39:49.740Z,99034.50
2023-11-18T10:42:16.075Z,99040.28
2023-11-18T10:44:55.918Z,99032.53
2023-11-18T10:47:22.332Z,99037.97
2023-11-18T10:49:52.050Z,99039.72
2023-11-18T10:52:20.439Z,99034.97
2023-11-18T10:54:54.249Z,99033.31
2023-11-18T10:57:21.476Z,99041.03
2023-11-18T11:00:01.175Z,99039.09
2023-11-18T11:02:32.232Z,99039.13
2023-11-18T11:04:58.671Z,99039.09
2023-11-18T11:07:26.912Z,99028.00
2023-11-18T11:09:53.288Z,99027.50
2023-11-18T11:12:21.029Z,99019.25
2023-11-18T11:14:58.548Z,99021.44
2023-11-18T11:17:28.800Z,99022.28
2023-11-18T11:20:08.347Z,99022.59
2023-11-18T11:22:40.619Z,99026.72
2023-11-18T11:25:06.897Z,99023.56
2023-11-18T11:27:56.785Z,99016.97
2023-11-18T11:30:24.069Z,99016.88
2023-11-18T11:32:53.351Z,99020.94
2023-11-18T11:35:32.713Z,99017.44
2023-11-18T11:38:00.555Z,99013.41
2023-11-18T11:40:28.498Z,99009.63
2023-11-18T11:42:55.222Z,99011.44
2023-11-18T11:45:25.639Z,98998.06
2023-11-18T11:47:53.516Z,99000.34
2023-11-18T11:50:27.252Z,99008.59
2023-11-18T11:53:00.596Z,98994.38
2023-11-18T11:55:46.183Z,98997.69
2023-11-18T11:58:27.402Z,98992.84
2023-11-18T12:00:55.721Z,98985.25
2023-11-18T12:03:25.431Z,98973.44
2023-11-18T12:05:56.143Z,98973.66
2023-11-18T12:08:23.919Z,98970.41
2023-11-18T12:10:55.091Z,98965.53
2023-11-18T12:13:21.544Z,98955.88
2023-11-18T12:15:57.147Z,98953.72
2023-11-18T12:18:26.536Z,98940.50
2023-11-18T12:20:53.009Z,98925.78
2023-11-18T12:23:19.474Z,98919.84
2023-11-18T12:25:45.916Z,98918.25
2023-11-18T12:28:16.831Z,98908.38
2023-11-18T12:30:45.447Z,98908.31
2023-11-18T12:33:11.985Z,98907.25
2023-11-18T12:36:07.616Z,98898.22
2023-11-18T12:38:45.813Z,98878.13
2023-11-18T12:41:36.315Z,98882.03
2023-11-18T12:44:15.511Z,98868.72
2023-11-18T12:46:55.309Z,98867.50
2023-11-18T12:49:26.006Z,98869.16
2023-11-18T12:51:56.625Z,98868.50
2023-11-18T12:54:25.283Z,98871.19
2023-11-18T12:56:52.652Z,98866.66
2023-11-18T12:59:19.114Z,98872.19
2023-11-18T13:01:48.286Z,98872.19
2023-11-18T13:04:14.979Z,98865.59
2023-11-18T13:06:41.592Z,98855.22
2023-11-18T13:09:08.125Z,98862.16
2023-11-18T13:11:34.556Z,98871.97
2023-11-18T13:14:01.239Z,98872.91
2023-11-18T13:16:27.728Z,98873.28
2023-11-18T13:18:54.152Z,98880.47
2023-11-18T13:21:21.053Z,98868.56
2023-11-18T13:23:49.242Z,98853.50
2023-11-18T13:26:16.734Z,98857.00
2023-11-18T13:28:43.620Z,98864.16
2023-11-18T13:31:11.053Z,98870.28
2023-11-18T13:33:40.581Z,98858.34
2023-11-18T13:36:08.194Z,98866.50
2023-11-18T13:38:34.662Z,98871.84
2023-11-18T13:41:01.126Z,98877.72
2023-11-18T13:43:27.525Z,98868.47
2023-11-18T13:45:54.087Z,98871.91
2023-11-18T13:48:22.443Z,98868.63
2023-11-18T13:50:48.963Z,98862.47
2023-11-18T13:53:15.385Z,98863.63
2023-11-18T13:55:41.941Z,98856.47
2023-11-18T13:58:08.391Z,98844.63
2023-11-18T14:00:34.898Z,98844.63
2023-11-18T14:03:02.356Z,98839.28
2023-11-18T14:05:28.836Z,98829.78
2023-11-18T14:07:55.737Z,98823.13
2023-11-18T14:10:23.529Z,98822.50
2023-11-18T14:13:03.354Z,98816.38
2023-11-18T14:15:30.423Z,98822.94
2023-11-18T14:17:56.865Z,98823.34
2023-11-18T14:20:23.456Z,98826.09
2023-11-18T14:22:52.183Z,98831.56
2023-11-18T14:25:19.645Z,98834.41
2023-11-18T14:27:45.996Z,98827.19
2023-11-18T14:30:13.197Z,98822.44
2023-11-18T14:32:39.575Z,98820.97
2023-11-18T14:35:07.282Z,98821.16
2023-11-18T14:37:34.006Z,98812.72
2023-11-18T14:40:00.373Z,98816.59
2023-11-18T14:42:26.942Z,98813.06
2023-11-18T14:44:53.277Z,98815.00
2023-11-18T14:47:19.622Z,98812.25
2023-11-18T14:49:46.023Z,98797.06
2023-11-18T14:52:12.357Z,98793.69
2023-11-18T14:54:38.700Z,98790.53
2023-11-18T14:57:05.378Z,98790.72
2023-11-18T14:59:31.774Z,98794.41
2023-11-18T15:01:58.633Z,98786.75
2023-11-18T15:04:25.081Z,98784.53
2023-11-18T15:06:51.501Z,98779.97
2023-11-18T15:09:17.939Z,98772.38
2023-11-18T15:11:44.311Z,98769.09
2023-11-18T15:14:10.709Z,98763.31
2023-11-18T15:16:37.191Z,98753.91
2023-11-18T15:19:04.620Z,98761.13
2023-11-18T15:21:31.129Z,98743.72
2023-11-18T15:23:57.552Z,98739.34
2023-11-18T15:26:23.930Z,98731.50
2023-11-18T15:28:50.291Z,98722.16
2023-11-18T15:31:16.671Z,98722.69
2023-11-18T15:33:43.028Z,98718.59
2023-11-18T15:36:10.611Z,98719.78
2023-11-18T15:38:37.124Z,98728.09
2023-11-18T15:41:03.729Z,98731.09
2023-11-18T15:43:30.148Z,98726.81
2023-11-18T15:45:56.469Z,98737.31
2023-11-18T15:48:22.942Z,98738.34
2023-11-18T15:50:49.435Z,98737.50
2023-11-18T15:53:16.481Z,98732.38
2023-11-18T15:55:43.285Z,98736.22
2023-11-18T15:58:09.699Z,98741.09
2023-11-18T16:00:36.265Z,98746.09
2023-11-18T16:03:03.538Z,98749.09
2023-11-18T16:05:30.530Z,98740.97
2023-11-18T16:07:57.325Z,98743.47
2023-11-18T16:10:26.711Z,98747.56
2023-11-18T16:12:57.981Z,98752.69
2023-11-18T16:15:28.817Z,98761.03
2023-11-18T16:17:59.234Z,98759.38
2023-11-18T16:20:28.041Z,98751.56
2023-11-18T16:22:55.801Z,98748.44
2023-11-18T16:25:22.904Z,98744.34
2023-11-18T16:27:50.812Z,98750.19
2023-11-18T16:30:18.712Z,98761.25
2023-11-18T16:32:48.186Z,98769.31
2023-11-18T16:35:16.335Z,98766.31
2023-11-18T16:37:44.143Z,98758.38
2023-11-18T16:40:12.517Z,98750.59
2023-11-18T16:42:39.009Z,98760.53
2023-11-18T16:45:05.809Z,98758.06
2023-11-18T16:47:32.409Z,98748.63
2023-11-18T16:50:03.618Z,98752.75
2023-11-18T16:52:31.239Z,98751.28
2023-11-18T16:54:57.891Z,98740.03
2023-11-18T16:57:24.330Z,98736.94
2023-11-18T16:59:50.671Z,98746.53
2023-11-18T17:02:17.074Z,98741.88
2023-11-18T17:04:43.573Z,98738.66
2023-11-18T17:07:10.118Z,98735.66
2023-11-18T17:09:36.577Z,98735.66
2023-11-18T17:12:03.021Z,98745.09
2023-11-18T17:14:29.481Z,98742.09
2023-11-18T17:16:55.986Z,98740.06
2023-11-18T17:19:22.427Z,98738.88
2023-11-18T17:21:48.806Z,98741.53
2023-11-18T17:24:15.197Z,98731.47
2023-11-18T17:26:41.594Z,98724.59
2023-11-18T17:29:08.031Z,98707.56
2023-11-18T17:31:35.815Z,98702.25
2023-11-18T17:34:02.559Z,98702.34
2023-11-18T17:36:29.281Z,98702.41
2023-11-18T17:38:55.609Z,98699.56
2023-11-18T17:41:22.349Z,98707.72
2023-11-18T17:43:49.772Z,98703.06
2023-11-18T17:46:17.015Z,98697.94
2023-11-18T17:48:43.736Z,98681.19
2023-11-18T17:51:10.761Z,98670.41
2023-11-18T17:53:37.269Z,98677.72
2023-11-18T17:56:03.917Z,98683.84
2023-11-18T17:58:30.311Z,98681.19
2023-11-18T18:00:56.818Z,98669.94
2023-11-18T18:03:23.241Z,98663.19
2023-11-18T18:05:49.691Z,98664.38
2023-11-18T18:08:16.180Z,98652.94
2023-11-18T18:10:42.530Z,98651.22
2023-11-18T18:13:08.984Z,98647.91
2023-11-18T18:15:36.733Z,98641.31
2023-11-18T18:18:03.174Z,98640.56
2023-11-18T18:20:29.631Z,98637.44
2023-11-18T18:22:55.984Z,98624.38
2023-11-18T18:25:22.379Z,98618.25
2023-11-18T18:27:48.887Z,98608.66
2023-11-18T18:30:15.362Z,98614.34
2023-11-18T18:32:42.101Z,98605.09
2023-11-18T18:35:09.142Z,98598.78
2023-11-18T18:37:35.522Z,98587.19
2023-11-18T18:40:01.967Z,98582.53
2023-11-18T18:42:28.300Z,98577.22
2023-11-18T18:44:54.752Z,98564.53
2023-11-18T18:47:22.378Z,98562.84
2023-11-18T18:49:50.033Z,98556.47
2023-11-18T18:52:16.496Z,98553.81
2023-11-18T18:54:43.825Z,98552.25
2023-11-18T18:57:10.211Z,98545.31
2023-11-18T18:59:36.705Z,98550.97
2023-11-18T19:02:03.104Z,98559.94
2023-11-18T19:04:29.453Z,98559.56
2023-11-18T19:06:55.868Z,98558.56
2023-11-18T19:09:22.217Z,98562.84
2023-11-18T19:11:49.144Z,98561.69
2023-11-18T19:14:15.730Z,98552.75
2023-11-18T19:16:43.665Z,98544.97
2023-11-18T19:19:10.190Z,98547.97
2023-11-18T19:21:36.560Z,98550.47
2023-11-18T19:24:02.898Z,98544.78
2023-11-18T19:26:29.342Z,98546.63
2023-11-18T19:28:55.770Z,98546.13
2023-11-18T19:31:22.126Z,98540.19
2023-11-18T19:33:48.536Z,98537.09
2023-11-18T19:36:16.010Z,98531.88
2023-11-18T19:38:43.537Z,98524.31
2023-11-18T19:41:09.957Z,98518.72
2023-11-18T19:43:36.415Z,98501.00
2023-11-18T19:46:02.953Z,98494.41
2023-11-18T19:48:29.353Z,98484.53
2023-11-18T19:50:55.952Z,98475.59
2023-11-18T19:53:22.379Z,98471.31
2023-11-18T19:55:48.946Z,98453.41
2023-11-18T19:58:15.439Z,98439.72
2023-11-18T20:00:41.869Z,98433.97
2023-11-18T20:03:08.419Z,98439.63
2023-11-18T20:05:35.679Z,98428.41
2023-11-18T20:08:02.515Z,98431.69
2023-11-18T20:10:28.997Z,98415.38
2023-11-18T20:12:55.345Z,98416.19
2023-11-18T20:15:22.503Z,98424.94
2023-11-18T20:17:49.336Z,98432.25
2023-11-18T20:20:15.812Z,98426.13
2023-11-18T20:22:42.378Z,98425.63
2023-11-18T20:25:08.992Z,98418.50
2023-11-18T20:27:35.708Z,98400.31
2023-11-18T20:30:05.328Z,98376.56
2023-11-18T20:32:37.264Z,98372.94
2023-11-18T20:35:04.133Z,98380.41
2023-11-18T20:37:30.675Z,98394.84
2023-11-18T20:39:57.008Z,98407.06
2023-11-18T20:42:24.177Z,98420.38
2023-11-18T20:44:50.806Z,98416.19
2023-11-18T20:47:19.748Z,98414.03
2023-11-18T20:49:46.119Z,98402.13
2023-11-18T20:52:12.553Z,98375.56
2023-11-18T20:54:38.957Z,98379.78
2023-11-18T20:57:05.495Z,98388.44
2023-11-18T20:59:32.292Z,98391.91
2023-11-18T21:01:59.305Z,98387.44
2023-11-18T21:04:25.857Z,98393.38
2023-11-18T21:06:53.247Z,98400.13
2023-11-18T21:09:19.630Z,98403.78
2023-11-18T21:11:46.118Z,98395.47
2023-11-18T21:14:12.485Z,98388.16
2023-11-18T21:16:39.063Z,98391.91
2023-11-18T21:19:05.650Z,98379.22
2023-11-18T21:21:32.060Z,98372.66
2023-11-18T21:23:58.507Z,98366.53
2023-11-18T21:26:25.055Z,98348.84
2023-11-18T21:28:52.137Z,98341.25
2023-11-18T21:31:18.500Z,98322.44
2023-11-18T21:33:44.999Z,98316.88
2023-11-18T21:36:11.365Z,98315.06
2023-11-18T21:38:37.734Z,98298.28
2023-11-18T21:41:04.285Z,98290.69
2023-11-18T21:43:30.651Z,98291.06
2023-11-18T21:45:57.903Z,98293.06
2023-11-18T21:48:24.297Z,98290.44
2023-11-18T21:50:50.678Z,98294.72
2023-11-18T21:53:17.468Z,98291.78
2023-11-18T21:55:43.815Z,98301.53
2023-11-18T21:58:10.461Z,98292.25
2023-11-18T22:00:45.092Z,98295.16
2023-11-18T22:03:12.254Z,98295.34
2023-11-18T22:08:05.483Z,98281.13
2023-11-18T22:10:31.840Z,98275.66
2023-11-18T22:12:58.210Z,98281.22
2023-11-18T22:15:24.528Z,98281.84
2023-11-18T22:17:50.993Z,98273.09
2023-11-18T22:20:18.237Z,98269.34
2023-11-18T22:22:45.361Z,98265.34
2023-11-18T22:25:11.735Z,98258.84
2023-11-18T22:27:38.203Z,98250.09
2023-11-18T22:30:05.080Z,98248.81
2023-11-18T22:32:31.540Z,98245.34
2023-11-18T22:34:59.149Z,98244.44
2023-11-18T22:37:25.617Z,98236.13
2023-11-18T22:39:52.211Z,98247.34
2023-11-18T22:42:18.961Z,98233.66
2023-11-18T22:44:45.364Z,98233.13
2023-11-18T22:47:20.326Z,98235.13
2023-11-18T22:49:46.681Z,98243.25
2023-11-18T22:52:13.342Z,98244.34
2023-11-18T22:54:39.675Z,98227.03
2023-11-18T22:57:06.811Z,98229.81
2023-11-18T22:59:33.258Z,98225.53
2023-11-18T23:02:00.516Z,98218.59
2023-11-18T23:04:26.865Z,98224.91
2023-11-18T23:06:53.194Z,98224.38
2023-11-18T23:09:19.548Z,98222.69
2023-11-18T23:11:45.884Z,98225.53
2023-11-18T23:14:12.278Z,98210.66
2023-11-18T23:16:38.679Z,98207.00
2023-11-18T23:19:05.137Z,98208.03
2023-11-18T23:21:31.563Z,98202.53
2023-11-18T23:23:58.002Z,98191.63
2023-11-18T23:26:24.339Z,98189.97
2023-11-18T23:28:50.674Z,98182.94
2023-11-18T23:31:17.159Z,98177.44
2023-11-18T23:33:43.853Z,98172.78
2023-11-18T23:36:10.221Z,98157.47
2023-11-18T23:38:37.542Z,98160.31
2023-11-18T23:41:04.791Z,98156.56
2023-11-18T23:43:31.199Z,98154.38
2023-11-18T23:45:57.708Z,98160.50
2023-11-18T23:48:24.061Z,98157.38
2023-11-18T23:50:50.470Z,98162.03
2023-11-18T23:53:17.580Z,98155.56
2023-11-18T23:55:45.027Z,98146.78
2023-11-18T23:58:11.363Z,98137.06
